sensor_id;sensor_type;location;lat;lon;timestamp;noise_LAeq;noise_LA_min;noise_LA_max;noise_LA01;noise_LA95
17594;Laerm;8916;47.086;15.920;2023-04-24T00:01:29;49.04;48.03;50.20;;
17594;Laerm;8916;47.086;15.920;2023-04-24T00:03:59;49.04;48.02;50.14;;
17594;Laerm;8916;47.086;15.920;2023-04-24T00:06:30;49.04;48.00;50.16;;
17594;Laerm;8916;47.086;15.920;2023-04-24T00:09:02;49.05;47.84;50.28;;
17594;Laerm;8916;47.086;15.920;2023-04-24T00:11:32;49.04;47.87;50.25;;
17594;Laerm;8916;47.086;15.920;2023-04-24T00:14:01;49.05;47.88;50.26;;
17594;Laerm;8916;47.086;15.920;2023-04-24T00:16:30;49.05;47.95;50.27;;
17594;Laerm;8916;47.086;15.920;2023-04-24T00:19:00;49.04;47.88;50.47;;
17594;Laerm;8916;47.086;15.920;2023-04-24T00:21:29;49.05;47.86;50.10;;
17594;Laerm;8916;47.086;15.920;2023-04-24T00:24:01;49.05;47.96;50.27;;
17594;Laerm;8916;47.086;15.920;2023-04-24T00:26:30;49.06;47.88;50.48;;
17594;Laerm;8916;47.086;15.920;2023-04-24T00:29:00;49.05;48.05;50.05;;
17594;Laerm;8916;47.086;15.920;2023-04-24T00:31:29;49.05;47.95;50.18;;
17594;Laerm;8916;47.086;15.920;2023-04-24T00:33:58;49.06;47.95;50.29;;
17594;Laerm;8916;47.086;15.920;2023-04-24T00:36:27;49.05;47.95;50.30;;
17594;Laerm;8916;47.086;15.920;2023-04-24T00:38:56;49.05;48.07;50.20;;
17594;Laerm;8916;47.086;15.920;2023-04-24T00:41:27;49.06;47.79;50.20;;
17594;Laerm;8916;47.086;15.920;2023-04-24T00:43:56;49.06;48.02;50.28;;
17594;Laerm;8916;47.086;15.920;2023-04-24T00:46:25;49.06;48.03;50.31;;
17594;Laerm;8916;47.086;15.920;2023-04-24T00:48:56;49.06;47.95;50.22;;
17594;Laerm;8916;47.086;15.920;2023-04-24T00:51:25;49.07;48.07;50.25;;
17594;Laerm;8916;47.086;15.920;2023-04-24T00:53:55;49.05;47.88;50.32;;
17594;Laerm;8916;47.086;15.920;2023-04-24T00:56:24;49.07;48.05;50.31;;
17594;Laerm;8916;47.086;15.920;2023-04-24T00:58:55;49.07;47.84;50.42;;
17594;Laerm;8916;47.086;15.920;2023-04-24T01:01:25;49.07;47.84;50.26;;
17594;Laerm;8916;47.086;15.920;2023-04-24T01:03:54;49.06;48.08;50.25;;
17594;Laerm;8916;47.086;15.920;2023-04-24T01:06:28;49.07;48.05;50.22;;
17594;Laerm;8916;47.086;15.920;2023-04-24T01:08:59;49.07;47.90;50.12;;
17594;Laerm;8916;47.086;15.920;2023-04-24T01:11:30;49.07;48.00;50.37;;
17594;Laerm;8916;47.086;15.920;2023-04-24T01:14:01;49.07;48.07;50.20;;
17594;Laerm;8916;47.086;15.920;2023-04-24T01:16:30;49.07;47.88;50.38;;
17594;Laerm;8916;47.086;15.920;2023-04-24T01:19:01;49.07;47.96;50.17;;
17594;Laerm;8916;47.086;15.920;2023-04-24T01:21:36;49.07;48.08;50.15;;
17594;Laerm;8916;47.086;15.920;2023-04-24T01:24:07;49.07;47.96;50.18;;
17594;Laerm;8916;47.086;15.920;2023-04-24T01:26:36;49.08;48.03;50.23;;
17594;Laerm;8916;47.086;15.920;2023-04-24T01:29:05;49.07;48.03;50.15;;
17594;Laerm;8916;47.086;15.920;2023-04-24T01:31:35;49.08;48.00;50.48;;
17594;Laerm;8916;47.086;15.920;2023-04-24T01:34:04;49.08;47.83;50.16;;
17594;Laerm;8916;47.086;15.920;2023-04-24T01:36:35;49.10;47.91;50.27;;
17594;Laerm;8916;47.086;15.920;2023-04-24T01:39:06;49.08;47.90;50.13;;
17594;Laerm;8916;47.086;15.920;2023-04-24T01:41:36;49.10;47.98;50.50;;
17594;Laerm;8916;47.086;15.920;2023-04-24T01:44:05;49.09;47.98;50.12;;
17594;Laerm;8916;47.086;15.920;2023-04-24T01:46:35;49.10;47.72;50.59;;
17594;Laerm;8916;47.086;15.920;2023-04-24T01:49:05;49.09;48.05;50.38;;
17594;Laerm;8916;47.086;15.920;2023-04-24T01:51:34;49.09;47.88;50.16;;
17594;Laerm;8916;47.086;15.920;2023-04-24T01:54:03;49.09;47.93;50.27;;
17594;Laerm;8916;47.086;15.920;2023-04-24T01:56:35;49.09;47.90;50.27;;
17594;Laerm;8916;47.086;15.920;2023-04-24T01:59:06;49.09;47.70;50.11;;
17594;Laerm;8916;47.086;15.920;2023-04-24T02:01:36;49.09;47.95;50.45;;
17594;Laerm;8916;47.086;15.920;2023-04-24T02:04:07;49.08;47.96;50.25;;
17594;Laerm;8916;47.086;15.920;2023-04-24T02:06:36;49.10;47.90;50.35;;
17594;Laerm;8916;47.086;15.920;2023-04-24T02:09:05;49.08;48.02;50.21;;
17594;Laerm;8916;47.086;15.920;2023-04-24T02:11:37;49.08;48.12;50.22;;
17594;Laerm;8916;47.086;15.920;2023-04-24T02:14:06;49.10;48.00;50.16;;
17594;Laerm;8916;47.086;15.920;2023-04-24T02:16:35;49.09;47.98;50.34;;
17594;Laerm;8916;47.086;15.920;2023-04-24T02:19:04;49.09;47.96;50.15;;
17594;Laerm;8916;47.086;15.920;2023-04-24T02:21:33;49.09;47.90;50.13;;
17594;Laerm;8916;47.086;15.920;2023-04-24T02:24:03;49.10;48.07;50.17;;
17594;Laerm;8916;47.086;15.920;2023-04-24T02:26:32;49.09;47.93;50.30;;
17594;Laerm;8916;47.086;15.920;2023-04-24T02:29:03;49.10;48.03;50.21;;
17594;Laerm;8916;47.086;15.920;2023-04-24T02:31:32;49.10;47.98;50.21;;
17594;Laerm;8916;47.086;15.920;2023-04-24T02:34:01;49.10;47.93;50.29;;
17594;Laerm;8916;47.086;15.920;2023-04-24T02:36:31;49.09;47.95;50.41;;
17594;Laerm;8916;47.086;15.920;2023-04-24T02:39:00;49.10;48.10;50.35;;
17594;Laerm;8916;47.086;15.920;2023-04-24T02:41:30;49.10;48.15;50.15;;
17594;Laerm;8916;47.086;15.920;2023-04-24T02:44:01;49.11;47.95;50.12;;
17594;Laerm;8916;47.086;15.920;2023-04-24T02:46:30;49.11;48.02;50.20;;
17594;Laerm;8916;47.086;15.920;2023-04-24T02:49:00;49.10;47.88;50.55;;
17594;Laerm;8916;47.086;15.920;2023-04-24T02:51:29;49.10;48.03;50.17;;
17594;Laerm;8916;47.086;15.920;2023-04-24T02:53:58;49.11;48.03;50.23;;
17594;Laerm;8916;47.086;15.920;2023-04-24T02:56:27;49.11;48.03;50.16;;
17594;Laerm;8916;47.086;15.920;2023-04-24T02:58:58;49.11;48.12;50.15;;
17594;Laerm;8916;47.086;15.920;2023-04-24T03:01:29;49.11;48.05;50.23;;
17594;Laerm;8916;47.086;15.920;2023-04-24T03:03:58;49.11;47.90;50.56;;
17594;Laerm;8916;47.086;15.920;2023-04-24T03:06:28;49.10;48.02;50.26;;
17594;Laerm;8916;47.086;15.920;2023-04-24T03:08:59;49.11;48.08;50.40;;
17594;Laerm;8916;47.086;15.920;2023-04-24T03:11:28;49.11;47.83;50.29;;
17594;Laerm;8916;47.086;15.920;2023-04-24T03:13:57;49.10;47.81;50.24;;
17594;Laerm;8916;47.086;15.920;2023-04-24T03:16:26;49.11;48.05;50.20;;
17594;Laerm;8916;47.086;15.920;2023-04-24T03:18:56;49.11;47.86;50.26;;
17594;Laerm;8916;47.086;15.920;2023-04-24T03:21:29;49.11;47.79;50.28;;
17594;Laerm;8916;47.086;15.920;2023-04-24T03:23:59;49.11;47.93;50.44;;
17594;Laerm;8916;47.086;15.920;2023-04-24T03:26:28;49.11;47.79;50.36;;
17594;Laerm;8916;47.086;15.920;2023-04-24T03:29:17;49.12;47.98;50.21;;
17594;Laerm;8916;47.086;15.920;2023-04-24T03:31:46;49.13;47.93;50.25;;
17594;Laerm;8916;47.086;15.920;2023-04-24T03:34:17;49.12;48.07;50.29;;
17594;Laerm;8916;47.086;15.920;2023-04-24T03:36:46;49.13;47.95;50.18;;
17594;Laerm;8916;47.086;15.920;2023-04-24T03:39:16;49.12;47.93;50.25;;
17594;Laerm;8916;47.086;15.920;2023-04-24T03:41:51;49.12;47.91;50.30;;
17594;Laerm;8916;47.086;15.920;2023-04-24T03:44:25;49.13;48.05;50.22;;
17594;Laerm;8916;47.086;15.920;2023-04-24T03:46:55;49.13;48.10;50.26;;
17594;Laerm;8916;47.086;15.920;2023-04-24T03:49:26;49.13;48.05;50.22;;
17594;Laerm;8916;47.086;15.920;2023-04-24T03:51:55;49.13;48.03;50.25;;
17594;Laerm;8916;47.086;15.920;2023-04-24T03:54:27;49.13;48.05;50.10;;
17594;Laerm;8916;47.086;15.920;2023-04-24T03:56:56;49.13;47.93;50.29;;
17594;Laerm;8916;47.086;15.920;2023-04-24T03:59:27;49.13;47.86;50.39;;
17594;Laerm;8916;47.086;15.920;2023-04-24T04:02:12;49.12;48.02;50.25;;
17594;Laerm;8916;47.086;15.920;2023-04-24T04:04:42;49.12;48.05;50.47;;
17594;Laerm;8916;47.086;15.920;2023-04-24T04:07:12;49.12;47.84;50.46;;
17594;Laerm;8916;47.086;15.920;2023-04-24T04:09:41;49.12;47.96;50.20;;
17594;Laerm;8916;47.086;15.920;2023-04-24T04:12:10;49.12;48.12;50.37;;
17594;Laerm;8916;47.086;15.920;2023-04-24T04:14:40;49.11;47.98;50.56;;
17594;Laerm;8916;47.086;15.920;2023-04-24T04:17:09;49.12;47.84;50.26;;
17594;Laerm;8916;47.086;15.920;2023-04-24T04:19:39;49.12;47.93;50.34;;
17594;Laerm;8916;47.086;15.920;2023-04-24T04:22:10;49.12;47.93;50.28;;
17594;Laerm;8916;47.086;15.920;2023-04-24T04:24:43;49.11;47.98;50.28;;
17594;Laerm;8916;47.086;15.920;2023-04-24T04:27:14;49.12;48.10;50.23;;
17594;Laerm;8916;47.086;15.920;2023-04-24T04:29:54;49.11;47.86;50.36;;
17594;Laerm;8916;47.086;15.920;2023-04-24T04:32:24;49.12;48.13;50.50;;
17594;Laerm;8916;47.086;15.920;2023-04-24T04:34:54;49.10;48.03;50.06;;
17594;Laerm;8916;47.086;15.920;2023-04-24T04:37:27;49.12;48.10;50.64;;
17594;Laerm;8916;47.086;15.920;2023-04-24T04:40:23;49.11;48.10;50.40;;
17594;Laerm;8916;47.086;15.920;2023-04-24T04:42:58;49.10;48.00;50.24;;
17594;Laerm;8916;47.086;15.920;2023-04-24T04:45:31;49.11;48.08;50.52;;
17594;Laerm;8916;47.086;15.920;2023-04-24T04:48:20;49.11;48.15;50.27;;
17594;Laerm;8916;47.086;15.920;2023-04-24T04:50:50;49.11;48.05;50.11;;
17594;Laerm;8916;47.086;15.920;2023-04-24T04:53:23;49.11;47.96;50.16;;
17594;Laerm;8916;47.086;15.920;2023-04-24T04:55:52;49.11;47.79;50.16;;
17594;Laerm;8916;47.086;15.920;2023-04-24T04:58:27;49.10;48.02;50.25;;
17594;Laerm;8916;47.086;15.920;2023-04-24T05:00:59;49.10;48.02;50.41;;
17594;Laerm;8916;47.086;15.920;2023-04-24T05:03:33;49.10;48.10;50.21;;
17594;Laerm;8916;47.086;15.920;2023-04-24T05:06:06;49.08;48.00;50.16;;
17594;Laerm;8916;47.086;15.920;2023-04-24T05:08:39;49.10;47.81;50.25;;
17594;Laerm;8916;47.086;15.920;2023-04-24T05:11:14;49.09;47.98;50.22;;
17594;Laerm;8916;47.086;15.920;2023-04-24T05:13:44;49.08;47.93;50.20;;
17594;Laerm;8916;47.086;15.920;2023-04-24T05:16:17;49.08;47.84;50.24;;
17594;Laerm;8916;47.086;15.920;2023-04-24T05:18:48;49.08;48.00;50.28;;
17594;Laerm;8916;47.086;15.920;2023-04-24T05:21:22;49.06;48.05;50.24;;
17594;Laerm;8916;47.086;15.920;2023-04-24T05:23:53;49.08;48.05;50.56;;
17594;Laerm;8916;47.086;15.920;2023-04-24T05:26:49;49.07;47.88;50.18;;
17594;Laerm;8916;47.086;15.920;2023-04-24T05:29:23;49.06;47.95;50.29;;
17594;Laerm;8916;47.086;15.920;2023-04-24T05:31:54;49.07;47.98;50.26;;
17594;Laerm;8916;47.086;15.920;2023-04-24T05:34:24;49.06;47.95;50.28;;
17594;Laerm;8916;47.086;15.920;2023-04-24T05:36:56;49.06;47.79;50.16;;
17594;Laerm;8916;47.086;15.920;2023-04-24T05:39:27;49.06;47.91;50.13;;
17594;Laerm;8916;47.086;15.920;2023-04-24T05:41:56;49.05;47.81;50.13;;
17594;Laerm;8916;47.086;15.920;2023-04-24T05:44:26;49.06;47.88;50.30;;
17594;Laerm;8916;47.086;15.920;2023-04-24T05:46:55;49.05;47.91;50.23;;
17594;Laerm;8916;47.086;15.920;2023-04-24T05:49:25;49.05;47.90;50.15;;
17594;Laerm;8916;47.086;15.920;2023-04-24T05:51:54;49.05;47.76;50.73;;
17594;Laerm;8916;47.086;15.920;2023-04-24T05:54:23;49.05;47.93;50.19;;
17594;Laerm;8916;47.086;15.920;2023-04-24T05:56:54;49.04;48.03;50.12;;
17594;Laerm;8916;47.086;15.920;2023-04-24T05:59:36;49.05;47.98;50.36;;
17594;Laerm;8916;47.086;15.920;2023-04-24T06:02:06;49.04;48.00;50.49;;
17594;Laerm;8916;47.086;15.920;2023-04-24T06:04:35;49.04;47.90;50.32;;
17594;Laerm;8916;47.086;15.920;2023-04-24T06:07:05;49.02;47.96;50.10;;
17594;Laerm;8916;47.086;15.920;2023-04-24T06:09:35;49.02;48.03;50.24;;
17594;Laerm;8916;47.086;15.920;2023-04-24T06:12:06;49.02;47.83;50.16;;
17594;Laerm;8916;47.086;15.920;2023-04-24T06:15:03;49.01;47.88;50.18;;
17594;Laerm;8916;47.086;15.920;2023-04-24T06:17:53;49.03;47.91;50.21;;
17594;Laerm;8916;47.086;15.920;2023-04-24T06:20:22;49.03;48.02;50.07;;
17594;Laerm;8916;47.086;15.920;2023-04-24T06:22:52;49.02;47.98;50.42;;
17594;Laerm;8916;47.086;15.920;2023-04-24T06:25:24;49.01;47.81;50.05;;
17594;Laerm;8916;47.086;15.920;2023-04-24T06:27:55;49.01;47.95;50.15;;
17594;Laerm;8916;47.086;15.920;2023-04-24T06:30:25;49.01;47.74;50.13;;
17594;Laerm;8916;47.086;15.920;2023-04-24T06:32:55;49.02;47.87;50.15;;
17594;Laerm;8916;47.086;15.920;2023-04-24T06:35:37;49.01;47.88;50.02;;
17594;Laerm;8916;47.086;15.920;2023-04-24T06:38:06;49.01;47.95;50.25;;
17594;Laerm;8916;47.086;15.920;2023-04-24T06:40:37;49.00;47.84;50.18;;
17594;Laerm;8916;47.086;15.920;2023-04-24T06:43:07;48.99;47.95;50.10;;
17594;Laerm;8916;47.086;15.920;2023-04-24T06:45:38;48.98;47.77;50.30;;
17594;Laerm;8916;47.086;15.920;2023-04-24T06:48:08;48.98;47.84;50.30;;
17594;Laerm;8916;47.086;15.920;2023-04-24T06:50:37;48.99;47.84;50.17;;
17594;Laerm;8916;47.086;15.920;2023-04-24T06:53:06;48.97;47.63;50.36;;
17594;Laerm;8916;47.086;15.920;2023-04-24T06:55:36;48.96;47.90;50.15;;
17594;Laerm;8916;47.086;15.920;2023-04-24T06:58:06;48.96;47.83;50.23;;
17594;Laerm;8916;47.086;15.920;2023-04-24T07:00:36;48.97;47.95;50.05;;
17594;Laerm;8916;47.086;15.920;2023-04-24T07:03:05;48.97;47.87;50.06;;
17594;Laerm;8916;47.086;15.920;2023-04-24T07:05:34;48.96;47.86;50.21;;
17594;Laerm;8916;47.086;15.920;2023-04-24T07:08:04;48.96;47.90;50.20;;
17594;Laerm;8916;47.086;15.920;2023-04-24T07:10:34;48.95;47.79;50.31;;
17594;Laerm;8916;47.086;15.920;2023-04-24T07:13:03;48.94;47.98;50.20;;
17594;Laerm;8916;47.086;15.920;2023-04-24T07:15:36;48.94;47.91;50.11;;
17594;Laerm;8916;47.086;15.920;2023-04-24T07:18:05;48.93;47.74;50.06;;
17594;Laerm;8916;47.086;15.920;2023-04-24T07:20:34;48.93;47.81;50.06;;
17594;Laerm;8916;47.086;15.920;2023-04-24T07:23:03;48.92;47.81;50.12;;
17594;Laerm;8916;47.086;15.920;2023-04-24T07:25:33;48.91;47.90;50.12;;
17594;Laerm;8916;47.086;15.920;2023-04-24T07:28:04;48.90;47.79;50.03;;
17594;Laerm;8916;47.086;15.920;2023-04-24T07:30:33;48.91;47.93;50.34;;
17594;Laerm;8916;47.086;15.920;2023-04-24T07:33:04;48.90;47.72;50.17;;
17594;Laerm;8916;47.086;15.920;2023-04-24T07:35:34;48.88;47.88;49.97;;
17594;Laerm;8916;47.086;15.920;2023-04-24T07:38:03;48.89;47.90;50.19;;
17594;Laerm;8916;47.086;15.920;2023-04-24T07:40:32;48.88;47.63;50.10;;
17594;Laerm;8916;47.086;15.920;2023-04-24T07:43:02;48.90;47.84;50.12;;
17594;Laerm;8916;47.086;15.920;2023-04-24T07:45:31;48.89;47.81;50.07;;
17594;Laerm;8916;47.086;15.920;2023-04-24T07:48:05;48.89;47.79;50.03;;
17594;Laerm;8916;47.086;15.920;2023-04-24T07:50:36;48.89;47.57;50.05;;
17594;Laerm;8916;47.086;15.920;2023-04-24T07:53:05;48.89;47.83;50.11;;
17594;Laerm;8916;47.086;15.920;2023-04-24T07:55:35;48.89;47.84;50.14;;
17594;Laerm;8916;47.086;15.920;2023-04-24T07:58:04;48.88;47.46;49.98;;
17594;Laerm;8916;47.086;15.920;2023-04-24T08:00:33;48.88;47.70;50.02;;
17594;Laerm;8916;47.086;15.920;2023-04-24T08:03:02;48.88;47.72;50.01;;
17594;Laerm;8916;47.086;15.920;2023-04-24T08:05:33;48.87;47.81;50.14;;
17594;Laerm;8916;47.086;15.920;2023-04-24T08:08:05;48.86;47.65;50.22;;
17594;Laerm;8916;47.086;15.920;2023-04-24T08:10:34;48.87;47.83;49.92;;
17594;Laerm;8916;47.086;15.920;2023-04-24T08:13:03;48.86;47.67;50.16;;
17594;Laerm;8916;47.086;15.920;2023-04-24T08:15:33;48.85;47.74;49.92;;
17594;Laerm;8916;47.086;15.920;2023-04-24T08:18:02;48.87;47.74;50.10;;
17594;Laerm;8916;47.086;15.920;2023-04-24T08:20:33;48.86;47.77;49.97;;
17594;Laerm;8916;47.086;15.920;2023-04-24T08:23:02;48.85;47.72;50.04;;
17594;Laerm;8916;47.086;15.920;2023-04-24T08:25:32;48.85;47.70;50.12;;
17594;Laerm;8916;47.086;15.920;2023-04-24T08:28:03;48.86;47.79;49.97;;
17594;Laerm;8916;47.086;15.920;2023-04-24T08:30:32;48.85;47.63;50.10;;
17594;Laerm;8916;47.086;15.920;2023-04-24T08:33:01;48.85;47.70;49.93;;
17594;Laerm;8916;47.086;15.920;2023-04-24T08:35:32;48.85;47.48;50.03;;
17594;Laerm;8916;47.086;15.920;2023-04-24T08:38:02;48.86;47.76;50.02;;
17594;Laerm;8916;47.086;15.920;2023-04-24T08:40:34;48.86;47.76;50.09;;
17594;Laerm;8916;47.086;15.920;2023-04-24T08:43:03;48.86;47.65;49.96;;
17594;Laerm;8916;47.086;15.920;2023-04-24T08:45:33;48.86;47.83;49.95;;
17594;Laerm;8916;47.086;15.920;2023-04-24T08:48:03;48.87;47.79;50.11;;
17594;Laerm;8916;47.086;15.920;2023-04-24T08:50:44;48.90;47.77;50.07;;
17594;Laerm;8916;47.086;15.920;2023-04-24T08:53:14;48.92;47.85;50.07;;
17594;Laerm;8916;47.086;15.920;2023-04-24T08:55:47;48.92;47.79;50.08;;
17594;Laerm;8916;47.086;15.920;2023-04-24T08:58:17;48.92;47.83;50.18;;
17594;Laerm;8916;47.086;15.920;2023-04-24T09:00:47;48.92;47.83;50.11;;
17594;Laerm;8916;47.086;15.920;2023-04-24T09:03:16;48.92;47.76;50.22;;
17594;Laerm;8916;47.086;15.920;2023-04-24T09:05:48;48.93;47.77;50.08;;
17594;Laerm;8916;47.086;15.920;2023-04-24T09:08:19;48.93;47.81;49.98;;
17594;Laerm;8916;47.086;15.920;2023-04-24T09:10:48;48.92;47.72;50.15;;
17594;Laerm;8916;47.086;15.920;2023-04-24T09:13:18;48.93;47.83;50.21;;
17594;Laerm;8916;47.086;15.920;2023-04-24T09:15:48;48.93;47.79;50.19;;
17594;Laerm;8916;47.086;15.920;2023-04-24T09:18:17;48.92;47.61;50.14;;
17594;Laerm;8916;47.086;15.920;2023-04-24T09:21:01;48.93;47.61;50.06;;
17594;Laerm;8916;47.086;15.920;2023-04-24T09:23:32;48.93;47.84;50.29;;
17594;Laerm;8916;47.086;15.920;2023-04-24T09:26:03;48.93;47.85;50.12;;
17594;Laerm;8916;47.086;15.920;2023-04-24T09:28:37;48.93;47.79;50.11;;
17594;Laerm;8916;47.086;15.920;2023-04-24T09:31:09;48.93;47.83;50.18;;
17594;Laerm;8916;47.086;15.920;2023-04-24T09:33:39;48.93;47.76;50.02;;
17594;Laerm;8916;47.086;15.920;2023-04-24T09:36:09;48.93;47.81;50.23;;
17594;Laerm;8916;47.086;15.920;2023-04-24T09:38:39;48.93;47.88;50.10;;
17594;Laerm;8916;47.086;15.920;2023-04-24T09:41:08;48.93;47.83;50.08;;
17594;Laerm;8916;47.086;15.920;2023-04-24T09:43:42;48.92;47.86;50.06;;
17594;Laerm;8916;47.086;15.920;2023-04-24T09:46:11;48.91;47.95;49.93;;
17594;Laerm;8916;47.086;15.920;2023-04-24T09:48:41;48.91;47.90;50.10;;
17594;Laerm;8916;47.086;15.920;2023-04-24T09:51:12;48.93;47.79;50.19;;
17594;Laerm;8916;47.086;15.920;2023-04-24T09:53:46;48.91;47.78;50.10;;
17594;Laerm;8916;47.086;15.920;2023-04-24T09:56:25;48.92;47.86;49.93;;
17594;Laerm;8916;47.086;15.920;2023-04-24T09:58:54;48.91;47.74;50.22;;
17594;Laerm;8916;47.086;15.920;2023-04-24T10:01:33;48.92;47.72;50.11;;
17594;Laerm;8916;47.086;15.920;2023-04-24T10:04:03;48.92;47.83;50.23;;
17594;Laerm;8916;47.086;15.920;2023-04-24T10:06:35;48.92;47.81;50.47;;
17594;Laerm;8916;47.086;15.920;2023-04-24T10:09:05;48.92;47.81;49.96;;
17594;Laerm;8916;47.086;15.920;2023-04-24T10:11:35;48.94;47.88;50.16;;
17594;Laerm;8916;47.086;15.920;2023-04-24T10:14:04;48.93;47.79;50.27;;
17594;Laerm;8916;47.086;15.920;2023-04-24T10:16:34;48.92;47.90;50.14;;
17594;Laerm;8916;47.086;15.920;2023-04-24T10:19:03;48.92;47.67;50.13;;
17594;Laerm;8916;47.086;15.920;2023-04-24T10:21:34;48.90;47.52;50.40;;
17594;Laerm;8916;47.086;15.920;2023-04-24T10:24:06;48.90;47.74;50.04;;
17594;Laerm;8916;47.086;15.920;2023-04-24T10:26:35;48.90;47.50;49.93;;
17594;Laerm;8916;47.086;15.920;2023-04-24T10:29:05;48.89;47.74;50.05;;
17594;Laerm;8916;47.086;15.920;2023-04-24T10:31:37;48.90;47.55;50.10;;
17594;Laerm;8916;47.086;15.920;2023-04-24T10:34:09;48.90;47.59;50.08;;
17594;Laerm;8916;47.086;15.920;2023-04-24T10:36:44;48.89;47.91;50.01;;
17594;Laerm;8916;47.086;15.920;2023-04-24T10:39:16;48.90;47.80;50.20;;
17594;Laerm;8916;47.086;15.920;2023-04-24T10:41:45;48.90;47.91;49.93;;
17594;Laerm;8916;47.086;15.920;2023-04-24T10:44:17;48.89;47.90;50.10;;
17594;Laerm;8916;47.086;15.920;2023-04-24T10:46:47;48.89;47.57;49.96;;
17594;Laerm;8916;47.086;15.920;2023-04-24T10:49:28;48.89;47.84;50.32;;
17594;Laerm;8916;47.086;15.920;2023-04-24T10:52:03;48.89;47.77;49.93;;
17594;Laerm;8916;47.086;15.920;2023-04-24T10:54:44;48.89;47.84;49.96;;
17594;Laerm;8916;47.086;15.920;2023-04-24T10:57:27;48.89;47.77;50.00;;
17594;Laerm;8916;47.086;15.920;2023-04-24T11:00:20;48.88;47.79;50.10;;
17594;Laerm;8916;47.086;15.920;2023-04-24T11:02:49;48.87;47.88;50.08;;
17594;Laerm;8916;47.086;15.920;2023-04-24T11:05:22;48.86;47.70;49.90;;
17594;Laerm;8916;47.086;15.920;2023-04-24T11:08:12;48.86;47.74;50.05;;
17594;Laerm;8916;47.086;15.920;2023-04-24T11:10:44;48.86;47.77;50.39;;
17594;Laerm;8916;47.086;15.920;2023-04-24T11:13:17;48.86;47.61;50.07;;
17594;Laerm;8916;47.086;15.920;2023-04-24T11:16:12;48.87;47.44;49.94;;
17594;Laerm;8916;47.086;15.920;2023-04-24T11:18:42;48.87;47.79;50.25;;
17594;Laerm;8916;47.086;15.920;2023-04-24T11:21:16;48.86;47.63;50.01;;
17594;Laerm;8916;47.086;15.920;2023-04-24T11:23:47;48.86;47.79;50.11;;
17594;Laerm;8916;47.086;15.920;2023-04-24T11:26:22;48.87;47.72;50.12;;
17594;Laerm;8916;47.086;15.920;2023-04-24T11:28:52;48.86;47.67;49.97;;
17594;Laerm;8916;47.086;15.920;2023-04-24T11:31:40;48.85;47.81;50.06;;
17594;Laerm;8916;47.086;15.920;2023-04-24T11:34:11;48.85;47.59;50.00;;
17594;Laerm;8916;47.086;15.920;2023-04-24T11:36:43;48.85;47.81;50.04;;
17594;Laerm;8916;47.086;15.920;2023-04-24T11:39:15;48.85;47.38;49.94;;
17594;Laerm;8916;47.086;15.920;2023-04-24T11:41:44;48.85;47.54;50.01;;
17594;Laerm;8916;47.086;15.920;2023-04-24T11:44:13;48.86;47.59;50.02;;
17594;Laerm;8916;47.086;15.920;2023-04-24T11:46:43;48.85;47.88;50.09;;
17594;Laerm;8916;47.086;15.920;2023-04-24T11:49:12;48.86;47.84;50.14;;
17594;Laerm;8916;47.086;15.920;2023-04-24T11:51:41;48.85;47.67;49.96;;
17594;Laerm;8916;47.086;15.920;2023-04-24T11:54:22;48.85;47.72;50.16;;
17594;Laerm;8916;47.086;15.920;2023-04-24T11:56:51;48.86;47.79;50.17;;
17594;Laerm;8916;47.086;15.920;2023-04-24T11:59:20;48.86;47.77;50.16;;
17594;Laerm;8916;47.086;15.920;2023-04-24T12:01:49;48.86;47.79;50.29;;
17594;Laerm;8916;47.086;15.920;2023-04-24T12:04:18;48.87;47.61;50.04;;
17594;Laerm;8916;47.086;15.920;2023-04-24T12:07:04;48.86;47.76;50.07;;
17594;Laerm;8916;47.086;15.920;2023-04-24T12:09:47;48.85;47.52;50.00;;
17594;Laerm;8916;47.086;15.920;2023-04-24T12:12:19;48.86;47.72;49.98;;
17594;Laerm;8916;47.086;15.920;2023-04-24T12:14:50;48.85;47.79;50.04;;
17594;Laerm;8916;47.086;15.920;2023-04-24T12:17:24;48.85;47.77;49.96;;
17594;Laerm;8916;47.086;15.920;2023-04-24T12:20:00;48.85;47.70;50.05;;
17594;Laerm;8916;47.086;15.920;2023-04-24T12:22:44;48.85;47.44;50.11;;
17594;Laerm;8916;47.086;15.920;2023-04-24T12:25:16;48.85;47.70;50.05;;
17594;Laerm;8916;47.086;15.920;2023-04-24T12:27:51;48.86;47.70;50.00;;
17594;Laerm;8916;47.086;15.920;2023-04-24T12:30:26;48.86;47.91;49.90;;
17594;Laerm;8916;47.086;15.920;2023-04-24T12:32:58;48.86;47.63;49.97;;
17594;Laerm;8916;47.086;15.920;2023-04-24T12:35:30;48.86;47.68;49.95;;
17594;Laerm;8916;47.086;15.920;2023-04-24T12:38:08;48.86;47.67;50.07;;
17594;Laerm;8916;47.086;15.920;2023-04-24T12:40:39;48.87;47.68;50.14;;
17594;Laerm;8916;47.086;15.920;2023-04-24T12:43:17;48.87;47.72;50.09;;
17594;Laerm;8916;47.086;15.920;2023-04-24T12:45:47;48.88;47.81;49.91;;
17594;Laerm;8916;47.086;15.920;2023-04-24T12:48:17;48.88;47.83;49.92;;
17594;Laerm;8916;47.086;15.920;2023-04-24T12:50:48;48.87;47.77;50.03;;
17594;Laerm;8916;47.086;15.920;2023-04-24T12:53:17;48.89;47.83;49.94;;
17594;Laerm;8916;47.086;15.920;2023-04-24T12:55:48;48.89;47.86;50.13;;
17594;Laerm;8916;47.086;15.920;2023-04-24T12:58:20;48.89;47.67;50.09;;
17594;Laerm;8916;47.086;15.920;2023-04-24T13:00:49;48.89;47.79;50.25;;
17594;Laerm;8916;47.086;15.920;2023-04-24T13:03:18;48.89;47.61;50.05;;
17594;Laerm;8916;47.086;15.920;2023-04-24T13:05:48;48.88;47.72;50.33;;
17594;Laerm;8916;47.086;15.920;2023-04-24T13:08:17;48.88;47.70;50.12;;
17594;Laerm;8916;47.086;15.920;2023-04-24T13:10:48;48.88;47.77;50.43;;
17594;Laerm;8916;47.086;15.920;2023-04-24T13:13:18;48.87;47.70;50.36;;
17594;Laerm;8916;47.086;15.920;2023-04-24T13:15:47;48.86;47.76;50.06;;
17594;Laerm;8916;47.086;15.920;2023-04-24T13:18:16;48.86;47.81;50.05;;
17594;Laerm;8916;47.086;15.920;2023-04-24T13:20:46;48.84;47.57;50.11;;
17594;Laerm;8916;47.086;15.920;2023-04-24T13:23:15;48.80;47.57;50.06;;
17594;Laerm;8916;47.086;15.920;2023-04-24T13:25:44;48.78;47.68;49.89;;
17594;Laerm;8916;47.086;15.920;2023-04-24T13:28:16;48.74;47.57;49.97;;
17594;Laerm;8916;47.086;15.920;2023-04-24T13:30:45;48.73;47.61;49.83;;
17594;Laerm;8916;47.086;15.920;2023-04-24T13:33:18;48.75;47.59;49.97;;
17594;Laerm;8916;47.086;15.920;2023-04-24T13:35:47;48.76;47.74;50.02;;
17594;Laerm;8916;47.086;15.920;2023-04-24T13:38:17;48.77;47.68;50.06;;
17594;Laerm;8916;47.086;15.920;2023-04-24T13:40:49;48.78;47.72;49.79;;
17594;Laerm;8916;47.086;15.920;2023-04-24T13:43:19;48.79;47.74;50.07;;
17594;Laerm;8916;47.086;15.920;2023-04-24T13:45:48;48.80;47.70;50.04;;
17594;Laerm;8916;47.086;15.920;2023-04-24T13:48:18;48.80;47.77;49.84;;
17594;Laerm;8916;47.086;15.920;2023-04-24T13:50:47;48.80;47.67;50.05;;
17594;Laerm;8916;47.086;15.920;2023-04-24T13:53:17;48.81;47.87;50.11;;
17594;Laerm;8916;47.086;15.920;2023-04-24T13:55:46;48.82;47.55;50.02;;
17594;Laerm;8916;47.086;15.920;2023-04-24T13:58:15;48.82;47.61;49.89;;
17594;Laerm;8916;47.086;15.920;2023-04-24T14:00:46;48.83;47.85;50.01;;
17594;Laerm;8916;47.086;15.920;2023-04-24T14:03:15;48.82;47.76;49.88;;
17594;Laerm;8916;47.086;15.920;2023-04-24T14:05:44;48.83;47.68;50.22;;
17594;Laerm;8916;47.086;15.920;2023-04-24T14:08:13;48.83;47.72;49.91;;